createdAt,value
2023-03-29T00:00:30.204Z,3.23
2023-03-29T00:01:36.172Z,3.20
2023-03-29T00:02:31.298Z,3.21
2023-03-29T00:03:30.312Z,3.21
2023-03-29T00:04:30.267Z,3.16
2023-03-29T00:05:30.202Z,3.16
2023-03-29T00:06:30.193Z,3.18
2023-03-29T00:07:30.322Z,3.27
2023-03-29T00:08:30.180Z,3.12
2023-03-29T00:09:30.188Z,3.18
2023-03-29T00:10:30.248Z,3.52
2023-03-29T00:11:30.219Z,3.55
2023-03-29T00:12:30.260Z,3.25
2023-03-29T00:13:30.315Z,3.32
2023-03-29T00:14:30.372Z,3.10
2023-03-29T00:15:30.420Z,3.16
2023-03-29T00:16:30.478Z,3.21
2023-03-29T00:17:30.520Z,3.30
2023-03-29T00:18:30.574Z,3.31
2023-03-29T00:19:30.607Z,3.31
2023-03-29T00:20:30.641Z,2.95
2023-03-29T00:21:30.714Z,3.03
2023-03-29T00:22:30.742Z,3.08
2023-03-29T00:23:30.798Z,2.93
2023-03-29T00:24:30.859Z,2.83
2023-03-29T00:25:30.907Z,2.71
2023-03-29T00:26:30.946Z,2.59
2023-03-29T00:27:31.004Z,2.59
2023-03-29T00:28:31.049Z,2.47
2023-03-29T00:29:31.106Z,2.43
2023-03-29T00:30:31.126Z,2.40
2023-03-29T00:31:31.240Z,2.41
2023-03-29T00:32:31.369Z,2.71
2023-03-29T00:33:31.296Z,2.63
2023-03-29T00:34:31.326Z,2.23
2023-03-29T00:35:31.378Z,2.12
2023-03-29T00:36:31.424Z,2.24
2023-03-29T00:37:31.498Z,2.14
2023-03-29T00:38:31.553Z,2.33
2023-03-29T00:39:31.592Z,2.19
2023-03-29T00:40:31.635Z,2.16
2023-03-29T00:41:31.680Z,2.60
2023-03-29T00:42:31.742Z,3.38
2023-03-29T00:43:31.774Z,3.10
2023-03-29T00:44:31.840Z,2.78
2023-03-29T00:45:31.874Z,2.57
2023-03-29T00:46:32.033Z,2.70
2023-03-29T00:47:31.998Z,2.84
2023-03-29T00:48:32.014Z,2.89
2023-03-29T00:49:32.078Z,3.12
2023-03-29T00:50:32.129Z,2.93
2023-03-29T00:51:32.173Z,2.87
2023-03-29T00:52:32.211Z,2.84
2023-03-29T00:53:32.277Z,2.88
2023-03-29T00:54:32.394Z,2.75
2023-03-29T00:55:32.410Z,2.88
2023-03-29T00:56:32.424Z,3.02
2023-03-29T00:57:32.501Z,2.96
2023-03-29T00:58:32.541Z,3.17
2023-03-29T00:59:32.626Z,3.16
2023-03-29T01:00:32.673Z,3.06
2023-03-29T01:01:32.712Z,3.05
2023-03-29T01:02:32.859Z,2.77
2023-03-29T01:03:32.975Z,2.89
2023-03-29T01:04:32.874Z,3.23
2023-03-29T01:05:32.921Z,3.70
2023-03-29T01:06:33.047Z,4.11
2023-03-29T01:07:33.041Z,4.79
2023-03-29T01:08:33.110Z,4.29
2023-03-29T01:09:33.144Z,3.44
2023-03-29T01:10:33.209Z,3.33
2023-03-29T01:11:33.239Z,3.00
2023-03-29T01:12:33.313Z,3.04
2023-03-29T01:13:33.349Z,2.95
2023-03-29T01:14:33.390Z,3.00
2023-03-29T01:15:33.458Z,3.00
2023-03-29T01:16:33.649Z,2.91
2023-03-29T01:17:33.611Z,2.87
2023-03-29T01:18:33.628Z,2.87
2023-03-29T01:19:33.680Z,2.72
2023-03-29T01:20:33.724Z,2.67
2023-03-29T01:21:33.778Z,2.91
2023-03-29T01:22:33.843Z,3.03
2023-03-29T01:23:33.881Z,2.94
2023-03-29T01:24:33.932Z,2.94
2023-03-29T01:25:34.019Z,2.87
2023-03-29T01:26:34.070Z,2.95
2023-03-29T01:27:34.143Z,2.90
2023-03-29T01:28:34.193Z,2.98
2023-03-29T01:29:34.264Z,2.71
2023-03-29T01:30:34.294Z,2.74
2023-03-29T01:31:34.368Z,2.81
2023-03-29T01:32:34.400Z,2.66
2023-03-29T01:33:34.469Z,2.51
2023-03-29T01:34:34.513Z,2.39
2023-03-29T01:35:34.599Z,2.55
2023-03-29T01:36:34.607Z,2.48
2023-03-29T01:37:34.677Z,2.51
2023-03-29T01:38:34.746Z,2.41
2023-03-29T01:39:34.860Z,2.29
2023-03-29T01:40:34.842Z,2.56
2023-03-29T01:41:34.885Z,2.33
2023-03-29T01:42:34.929Z,2.32
2023-03-29T01:43:34.982Z,2.33
2023-03-29T01:44:35.034Z,2.33
2023-03-29T01:45:35.098Z,2.30
2023-03-29T01:46:35.187Z,2.42
2023-03-29T01:47:35.233Z,2.45
2023-03-29T01:48:35.279Z,2.43
2023-03-29T01:49:35.310Z,2.42
2023-03-29T01:50:35.386Z,2.35
2023-03-29T01:51:35.411Z,2.31
2023-03-29T01:52:35.464Z,2.43
2023-03-29T01:53:35.540Z,2.43
2023-03-29T01:54:35.571Z,2.45
2023-03-29T01:55:35.634Z,2.39
2023-03-29T01:56:35.681Z,2.39
2023-03-29T01:57:35.751Z,2.23
2023-03-29T01:58:35.808Z,2.40
2023-03-29T01:59:35.862Z,2.30
2023-03-29T02:00:35.908Z,2.34
2023-03-29T02:01:36.094Z,2.56
2023-03-29T02:02:36.079Z,2.51
2023-03-29T02:03:36.147Z,2.32
2023-03-29T02:04:36.132Z,2.27
2023-03-29T02:05:36.207Z,2.35
2023-03-29T02:06:36.266Z,2.32
2023-03-29T02:07:36.303Z,2.43
2023-03-29T02:08:36.373Z,2.34
2023-03-29T02:09:36.420Z,2.34
2023-03-29T02:10:36.520Z,2.31
2023-03-29T02:11:36.552Z,2.26
2023-03-29T02:12:36.609Z,2.17
2023-03-29T02:13:36.667Z,2.27
2023-03-29T02:14:36.712Z,2.14
2023-03-29T02:15:36.781Z,2.11
2023-03-29T02:16:36.832Z,2.18
2023-03-29T02:17:36.905Z,2.12
2023-03-29T02:18:36.924Z,2.33
2023-03-29T02:19:36.987Z,2.15
2023-03-29T02:20:37.032Z,2.12
2023-03-29T02:21:37.106Z,2.20
2023-03-29T02:22:37.208Z,2.17
2023-03-29T02:23:37.290Z,2.23
2023-03-29T02:24:37.260Z,2.18
2023-03-29T02:25:37.316Z,2.09
2023-03-29T02:26:37.403Z,2.14
2023-03-29T02:27:37.453Z,2.06
2023-03-29T02:28:37.511Z,2.02
2023-03-29T02:29:37.557Z,2.25
2023-03-29T02:30:37.651Z,2.25
2023-03-29T02:31:37.751Z,2.29
2023-03-29T02:32:37.822Z,2.15
2023-03-29T02:33:37.797Z,2.47
2023-03-29T02:34:37.867Z,2.17
2023-03-29T02:35:37.989Z,2.16
2023-03-29T02:36:37.967Z,2.31
2023-03-29T02:37:38.035Z,2.14
2023-03-29T02:38:38.087Z,2.19
2023-03-29T02:39:38.138Z,2.32
2023-03-29T02:40:38.207Z,2.30
2023-03-29T02:41:38.234Z,2.27
2023-03-29T02:42:38.298Z,2.24
2023-03-29T02:43:38.372Z,2.34
2023-03-29T02:44:38.415Z,2.48
2023-03-29T02:45:38.552Z,2.46
2023-03-29T02:46:38.546Z,2.58
2023-03-29T02:47:38.623Z,2.58
2023-03-29T02:48:38.651Z,2.65
2023-03-29T02:49:38.700Z,2.62
2023-03-29T02:50:38.762Z,2.62
2023-03-29T02:51:38.821Z,2.57
2023-03-29T02:52:38.882Z,2.68
2023-03-29T02:53:38.967Z,2.72
2023-03-29T02:54:39.015Z,2.71
2023-03-29T02:55:39.078Z,2.77
2023-03-29T02:56:39.154Z,3.03
2023-03-29T02:57:39.179Z,3.11
2023-03-29T02:58:39.263Z,3.25
2023-03-29T02:59:39.314Z,3.16
2023-03-29T03:00:39.386Z,2.93
2023-03-29T03:01:39.452Z,2.89
2023-03-29T03:02:39.548Z,2.90
2023-03-29T03:03:39.622Z,3.31
2023-03-29T03:04:39.597Z,3.25
2023-03-29T03:05:39.647Z,3.27
2023-03-29T03:06:39.725Z,3.34
2023-03-29T03:07:39.878Z,3.18
2023-03-29T03:08:39.847Z,3.26
2023-03-29T03:09:39.889Z,3.15
2023-03-29T03:10:39.958Z,3.20
2023-03-29T03:11:40.018Z,3.10
2023-03-29T03:12:40.074Z,3.23
2023-03-29T03:13:40.131Z,3.27
2023-03-29T03:14:40.208Z,3.18
2023-03-29T03:15:40.257Z,3.42
2023-03-29T03:16:40.367Z,3.37
2023-03-29T03:17:40.417Z,3.19
2023-03-29T03:18:40.421Z,3.45
2023-03-29T03:19:40.485Z,3.33
2023-03-29T03:20:40.552Z,3.30
2023-03-29T03:21:40.587Z,3.03
2023-03-29T03:22:40.636Z,3.14
2023-03-29T03:23:40.692Z,3.26
2023-03-29T03:24:40.757Z,3.05
2023-03-29T03:25:40.827Z,3.12
2023-03-29T03:26:40.884Z,3.35
2023-03-29T03:27:40.911Z,3.24
2023-03-29T03:28:40.968Z,3.14
2023-03-29T03:29:41.142Z,3.16
2023-03-29T03:30:41.092Z,3.25
2023-03-29T03:31:41.216Z,3.50
2023-03-29T03:32:41.248Z,3.52
2023-03-29T03:33:41.262Z,3.27
2023-03-29T03:34:41.318Z,3.31
2023-03-29T03:35:41.383Z,3.37
2023-03-29T03:36:41.441Z,3.18
2023-03-29T03:37:41.500Z,3.58
2023-03-29T03:38:41.550Z,3.34
2023-03-29T03:39:41.605Z,3.44
2023-03-29T03:40:41.644Z,3.28
2023-03-29T03:41:41.742Z,3.11
2023-03-29T03:42:41.798Z,3.30
2023-03-29T03:43:41.814Z,3.35
2023-03-29T03:44:41.897Z,3.20
2023-03-29T03:45:41.935Z,3.05
2023-03-29T03:46:41.974Z,3.14
2023-03-29T03:47:42.075Z,3.23
2023-03-29T03:48:42.083Z,3.68
2023-03-29T03:49:42.126Z,3.70
2023-03-29T03:50:42.213Z,3.77
2023-03-29T03:51:42.260Z,3.34
2023-03-29T03:52:42.297Z,3.05
2023-03-29T03:53:42.387Z,2.86
2023-03-29T03:54:42.421Z,2.96
2023-03-29T03:55:42.461Z,3.04
2023-03-29T03:56:42.526Z,3.03
2023-03-29T03:57:42.574Z,3.25
2023-03-29T03:58:42.670Z,3.58
2023-03-29T03:59:42.691Z,3.41
2023-03-29T04:00:42.774Z,3.11
2023-03-29T04:01:42.823Z,3.17
2023-03-29T04:02:42.952Z,2.96
2023-03-29T04:03:43.066Z,3.02
2023-03-29T04:04:43.000Z,2.92
2023-03-29T04:05:43.057Z,2.96
2023-03-29T04:06:43.884Z,2.94
2023-03-29T04:07:43.174Z,2.94
2023-03-29T04:08:43.246Z,2.84
2023-03-29T04:09:43.287Z,3.02
2023-03-29T04:10:43.354Z,2.95
2023-03-29T04:11:43.409Z,3.25
2023-03-29T04:12:43.459Z,2.85
2023-03-29T04:13:43.527Z,2.72
2023-03-29T04:14:43.569Z,2.93
2023-03-29T04:15:43.655Z,3.04
2023-03-29T04:16:43.772Z,3.19
2023-03-29T04:17:43.852Z,3.06
2023-03-29T04:18:43.917Z,2.89
2023-03-29T04:19:43.847Z,3.01
2023-03-29T04:20:43.914Z,3.37
2023-03-29T04:21:43.943Z,3.51
2023-03-29T04:22:44.005Z,3.67
2023-03-29T04:23:44.057Z,3.60
2023-03-29T04:24:44.134Z,3.33
2023-03-29T04:25:44.154Z,2.96
2023-03-29T04:26:44.228Z,2.85
2023-03-29T04:27:44.281Z,2.81
2023-03-29T04:28:44.355Z,2.82
2023-03-29T04:29:44.411Z,3.05
2023-03-29T04:30:44.453Z,3.32
2023-03-29T04:31:44.561Z,3.21
2023-03-29T04:32:44.595Z,3.02
2023-03-29T04:33:44.634Z,2.79
2023-03-29T04:34:44.706Z,2.88
2023-03-29T04:35:44.766Z,2.72
2023-03-29T04:36:44.801Z,2.81
2023-03-29T04:37:44.866Z,2.79
2023-03-29T04:38:47.578Z,3.03
2023-03-29T04:39:44.949Z,2.91
2023-03-29T04:40:44.924Z,2.86
2023-03-29T04:41:44.903Z,3.00
2023-03-29T04:42:44.912Z,3.11
2023-03-29T04:43:44.901Z,2.97
2023-03-29T04:44:44.901Z,2.99
2023-03-29T04:45:44.882Z,3.00
2023-03-29T04:46:44.902Z,3.05
2023-03-29T04:47:44.909Z,3.05
2023-03-29T04:48:44.865Z,3.09
2023-03-29T04:49:44.857Z,3.27
2023-03-29T04:50:44.830Z,3.28
2023-03-29T04:51:44.833Z,3.01
2023-03-29T04:52:44.833Z,3.18
2023-03-29T04:53:44.820Z,3.02
2023-03-29T04:54:44.819Z,3.48
2023-03-29T04:55:44.802Z,3.55
2023-03-29T04:56:44.845Z,4.20
2023-03-29T04:57:44.793Z,4.44
2023-03-29T04:58:44.804Z,3.71
2023-03-29T04:59:44.803Z,3.43
2023-03-29T05:00:44.760Z,3.34
2023-03-29T05:01:44.811Z,3.20
2023-03-29T05:02:44.801Z,3.44
2023-03-29T05:03:44.768Z,3.63
2023-03-29T05:04:44.768Z,3.33
2023-03-29T05:05:44.739Z,3.27
2023-03-29T05:06:44.732Z,3.19
2023-03-29T05:07:44.727Z,3.50
2023-03-29T05:08:44.745Z,3.43
2023-03-29T05:09:44.698Z,3.73
2023-03-29T05:10:44.689Z,3.75
2023-03-29T05:11:44.698Z,3.67
2023-03-29T05:12:44.675Z,3.39
2023-03-29T05:13:44.696Z,3.50
2023-03-29T05:14:44.728Z,3.39
2023-03-29T05:15:44.776Z,3.60
2023-03-29T05:16:44.889Z,3.82
2023-03-29T05:17:44.915Z,4.14
2023-03-29T05:18:44.967Z,4.42
2023-03-29T05:19:45.016Z,4.03
2023-03-29T05:20:45.076Z,3.99
2023-03-29T05:21:45.737Z,3.85
2023-03-29T05:22:45.185Z,3.90
2023-03-29T05:23:45.267Z,3.81
2023-03-29T05:24:45.311Z,3.88
2023-03-29T05:25:45.831Z,4.02
2023-03-29T05:26:45.453Z,3.97
2023-03-29T05:27:45.498Z,4.10
2023-03-29T05:28:45.540Z,4.63
2023-03-29T05:29:45.596Z,5.11
2023-03-29T05:30:45.768Z,5.87
2023-03-29T05:31:45.748Z,11.83
2023-03-29T05:32:45.774Z,6.50
2023-03-29T05:33:45.783Z,6.05
2023-03-29T05:34:45.812Z,6.60
2023-03-29T05:35:45.854Z,6.65
2023-03-29T05:36:45.872Z,6.60
2023-03-29T05:37:45.931Z,7.30
2023-03-29T05:38:45.938Z,7.09
2023-03-29T05:39:45.990Z,6.23
2023-03-29T05:40:46.007Z,7.11
2023-03-29T05:41:46.025Z,7.32
2023-03-29T05:42:46.071Z,7.56
2023-03-29T05:43:46.112Z,8.73
2023-03-29T05:44:46.110Z,9.30
2023-03-29T05:45:46.171Z,10.42
2023-03-29T05:46:46.152Z,10.71
2023-03-29T05:47:46.199Z,11.14
2023-03-29T05:48:46.178Z,11.99
2023-03-29T05:49:46.184Z,12.70
2023-03-29T05:50:46.419Z,13.32
2023-03-29T05:51:46.225Z,13.39
2023-03-29T05:52:46.214Z,14.62
2023-03-29T05:53:46.253Z,14.91
2023-03-29T05:54:46.253Z,15.01
2023-03-29T05:55:46.274Z,15.45
2023-03-29T05:56:46.310Z,15.74
2023-03-29T05:57:46.265Z,16.62
2023-03-29T05:58:46.278Z,16.96
2023-03-29T05:59:46.288Z,16.67
2023-03-29T06:00:46.297Z,17.16
2023-03-29T06:01:46.282Z,17.35
2023-03-29T06:02:46.343Z,16.87
2023-03-29T06:03:46.475Z,16.75
2023-03-29T06:04:46.313Z,17.32
2023-03-29T06:05:48.385Z,17.72
2023-03-29T06:06:46.246Z,17.16
2023-03-29T06:07:46.248Z,17.44
2023-03-29T06:08:46.238Z,17.29
2023-03-29T06:09:46.226Z,17.43
2023-03-29T06:10:46.253Z,18.00
2023-03-29T06:11:46.208Z,17.76
2023-03-29T06:12:46.201Z,17.65
2023-03-29T06:13:46.204Z,17.69
2023-03-29T06:14:46.205Z,18.12
2023-03-29T06:15:46.205Z,18.47
2023-03-29T06:16:46.288Z,17.93
2023-03-29T06:17:46.188Z,18.48
2023-03-29T06:18:46.173Z,18.92
2023-03-29T06:19:46.168Z,18.73
2023-03-29T06:20:46.150Z,16.85
2023-03-29T06:21:46.156Z,16.79
2023-03-29T06:22:46.155Z,18.19
2023-03-29T06:23:46.138Z,18.59
2023-03-29T06:24:46.150Z,17.59
2023-03-29T06:25:46.358Z,15.42
2023-03-29T06:26:46.124Z,17.18
2023-03-29T06:27:46.095Z,18.35
2023-03-29T06:28:46.120Z,19.11
2023-03-29T06:29:46.098Z,19.94
2023-03-29T06:30:46.164Z,19.98
2023-03-29T06:31:46.212Z,17.57
2023-03-29T06:32:46.091Z,16.41
2023-03-29T06:33:46.084Z,17.82
2023-03-29T06:34:46.057Z,18.12
2023-03-29T06:35:46.096Z,19.76
2023-03-29T06:36:46.044Z,20.45
2023-03-29T06:37:46.044Z,21.23
2023-03-29T06:38:46.031Z,22.22
2023-03-29T06:39:46.038Z,22.68
2023-03-29T06:40:46.011Z,23.42
2023-03-29T06:41:46.019Z,24.18
2023-03-29T06:42:46.012Z,24.18
2023-03-29T06:43:46.010Z,24.16
2023-03-29T06:44:45.997Z,24.42
2023-03-29T06:45:45.979Z,24.94
2023-03-29T06:46:46.400Z,26.06
2023-03-29T06:47:46.293Z,26.11
2023-03-29T06:48:46.121Z,26.51
2023-03-29T06:49:46.161Z,26.53
2023-03-29T06:50:46.216Z,25.08
2023-03-29T06:51:46.260Z,25.73
2023-03-29T06:52:46.369Z,25.34
2023-03-29T06:53:46.367Z,23.84
2023-03-29T06:54:46.428Z,25.38
2023-03-29T06:55:46.474Z,25.45
2023-03-29T06:56:46.565Z,24.26
2023-03-29T06:57:46.555Z,23.77
2023-03-29T06:58:46.598Z,23.97
2023-03-29T06:59:46.633Z,22.48
2023-03-29T07:00:46.700Z,21.44
2023-03-29T07:01:46.761Z,21.51
2023-03-29T07:02:47.064Z,20.50
2023-03-29T07:03:47.002Z,21.81
2023-03-29T07:04:46.864Z,22.20
2023-03-29T07:05:46.880Z,21.97
2023-03-29T07:06:46.946Z,21.38
2023-03-29T07:07:47.392Z,21.04
2023-03-29T07:08:47.010Z,21.62
2023-03-29T07:09:47.053Z,21.59
2023-03-29T07:10:47.089Z,21.19
2023-03-29T07:11:47.171Z,21.18
2023-03-29T07:12:47.176Z,20.92
2023-03-29T07:13:47.193Z,20.82
2023-03-29T07:14:47.248Z,21.02
2023-03-29T07:15:47.309Z,21.28
2023-03-29T07:16:47.474Z,20.17
2023-03-29T07:17:47.376Z,20.30
2023-03-29T07:18:47.388Z,19.83
2023-03-29T07:19:47.428Z,19.44
2023-03-29T07:20:47.486Z,18.84
2023-03-29T07:21:47.877Z,19.40
2023-03-29T07:22:47.550Z,17.94
2023-03-29T07:23:47.574Z,18.37
2023-03-29T07:24:47.630Z,17.64
2023-03-29T07:25:47.664Z,18.11
2023-03-29T07:27:00.054Z,16.25
2023-03-29T07:27:49.184Z,16.31
2023-03-29T07:28:47.691Z,16.45
2023-03-29T07:29:48.361Z,16.75
2023-03-29T07:30:47.677Z,17.47
2023-03-29T07:31:47.685Z,19.31
2023-03-29T07:32:48.262Z,19.30
2023-03-29T07:33:47.757Z,19.57
2023-03-29T07:34:47.661Z,20.07
2023-03-29T07:35:47.684Z,19.68
2023-03-29T07:36:47.631Z,19.34
2023-03-29T07:37:47.873Z,19.11
2023-03-29T07:38:47.661Z,19.15
2023-03-29T07:39:47.704Z,18.53
2023-03-29T07:40:47.726Z,18.63
2023-03-29T07:41:47.769Z,18.29
2023-03-29T07:42:47.796Z,18.47
2023-03-29T07:43:47.798Z,18.51
2023-03-29T07:44:47.892Z,18.15
2023-03-29T07:45:47.846Z,18.22
2023-03-29T07:46:47.864Z,17.92
2023-03-29T07:47:47.895Z,18.09
2023-03-29T07:48:47.904Z,17.57
2023-03-29T07:49:48.384Z,17.55
2023-03-29T07:50:47.931Z,17.31
2023-03-29T07:51:47.973Z,17.13
2023-03-29T07:52:47.955Z,18.43
2023-03-29T07:53:47.977Z,20.13
2023-03-29T07:54:48.370Z,20.34
2023-03-29T07:55:48.029Z,20.67
2023-03-29T07:56:48.057Z,21.09
2023-03-29T07:57:48.050Z,21.21
2023-03-29T07:58:48.067Z,20.27
2023-03-29T07:59:48.397Z,20.49
2023-03-29T08:00:48.111Z,20.25
2023-03-29T08:01:48.115Z,19.16
2023-03-29T08:02:48.164Z,19.41
2023-03-29T08:03:48.225Z,19.19
2023-03-29T08:04:48.130Z,18.55
2023-03-29T08:05:48.124Z,16.80
2023-03-29T08:06:48.129Z,17.99
2023-03-29T08:07:48.134Z,18.21
2023-03-29T08:08:48.131Z,15.00
2023-03-29T08:09:48.370Z,15.14
2023-03-29T08:10:48.145Z,16.33
2023-03-29T08:11:48.200Z,16.01
2023-03-29T08:12:48.167Z,16.20
2023-03-29T08:13:48.173Z,16.03
2023-03-29T08:14:48.428Z,15.64
2023-03-29T08:15:48.185Z,14.34
2023-03-29T08:16:48.210Z,13.91
2023-03-29T08:17:48.273Z,13.35
2023-03-29T08:18:48.226Z,12.97
2023-03-29T08:19:51.245Z,12.79
2023-03-29T08:20:48.382Z,11.84
2023-03-29T08:21:48.195Z,12.04
2023-03-29T08:22:48.199Z,12.38
2023-03-29T08:23:48.170Z,12.06
2023-03-29T08:24:48.182Z,12.13
2023-03-29T08:25:48.393Z,12.63
2023-03-29T08:26:48.163Z,12.92
2023-03-29T08:27:48.388Z,12.59
2023-03-29T08:28:48.132Z,12.80
2023-03-29T08:29:48.149Z,13.43
2023-03-29T08:30:48.193Z,13.79
2023-03-29T08:31:48.136Z,15.81
2023-03-29T08:32:50.483Z,11.41
2023-03-29T08:33:48.110Z,3.67
2023-03-29T08:34:48.109Z,3.32
2023-03-29T08:35:48.103Z,4.19
2023-03-29T08:36:48.081Z,4.56
2023-03-29T08:37:48.390Z,4.81
2023-03-29T08:38:48.410Z,4.85
2023-03-29T08:39:48.090Z,5.08
2023-03-29T08:40:48.073Z,5.27
2023-03-29T08:41:48.067Z,5.79
2023-03-29T08:42:48.045Z,6.71
2023-03-29T08:43:48.410Z,7.79
2023-03-29T08:44:48.038Z,8.45
2023-03-29T08:45:50.797Z,8.95
2023-03-29T08:46:48.073Z,8.98
2023-03-29T08:47:48.074Z,9.14
2023-03-29T08:48:48.019Z,9.65
2023-03-29T08:49:48.018Z,10.36
2023-03-29T08:50:48.079Z,11.21
2023-03-29T08:51:48.000Z,11.41
2023-03-29T08:52:47.977Z,11.63
2023-03-29T08:53:48.000Z,12.04
2023-03-29T08:54:47.976Z,11.71
2023-03-29T08:55:47.977Z,11.73
2023-03-29T08:56:48.001Z,12.02
2023-03-29T08:57:47.935Z,12.12
2023-03-29T08:58:47.941Z,11.69
2023-03-29T08:59:47.940Z,12.56
2023-03-29T09:00:47.910Z,12.38
2023-03-29T09:01:48.721Z,11.77
2023-03-29T09:02:47.924Z,12.33
2023-03-29T09:03:48.095Z,12.16
2023-03-29T09:04:47.904Z,12.12
2023-03-29T09:05:47.894Z,11.98
2023-03-29T09:06:47.911Z,11.82
2023-03-29T09:07:47.895Z,11.52
2023-03-29T09:08:47.942Z,11.36
2023-03-29T09:09:47.849Z,11.56
2023-03-29T09:10:47.848Z,11.51
2023-03-29T09:11:47.847Z,11.68
2023-03-29T09:12:47.852Z,11.58
2023-03-29T09:13:47.849Z,11.40
2023-03-29T09:14:47.823Z,11.40
2023-03-29T09:15:47.829Z,11.60
2023-03-29T09:16:47.828Z,11.56
2023-03-29T09:17:49.683Z,11.74
2023-03-29T09:18:47.790Z,11.62
2023-03-29T09:19:47.823Z,11.87
2023-03-29T09:20:47.787Z,11.28
2023-03-29T09:21:47.780Z,11.26
2023-03-29T09:22:47.900Z,11.24
2023-03-29T09:23:47.771Z,11.17
2023-03-29T09:24:47.748Z,11.34
2023-03-29T09:25:53.495Z,11.17
2023-03-29T09:26:48.726Z,11.14
2023-03-29T09:27:47.921Z,9.81
2023-03-29T09:28:47.727Z,10.15
2023-03-29T09:29:47.718Z,10.35
2023-03-29T09:30:47.720Z,9.90
2023-03-29T09:31:47.773Z,9.53
2023-03-29T09:32:47.992Z,8.78
2023-03-29T09:33:47.903Z,9.25
2023-03-29T09:34:47.692Z,10.01
2023-03-29T09:35:47.721Z,10.29
2023-03-29T09:36:47.652Z,10.41
2023-03-29T09:37:47.682Z,10.25
2023-03-29T09:38:47.649Z,9.28
2023-03-29T09:39:47.679Z,8.96
2023-03-29T09:40:47.655Z,8.34
2023-03-29T09:41:47.620Z,7.29
2023-03-29T09:42:47.625Z,6.89
2023-03-29T09:43:47.650Z,6.98
2023-03-29T09:44:47.613Z,6.73
2023-03-29T09:45:47.661Z,6.11
2023-03-29T09:46:47.586Z,6.43
2023-03-29T09:47:47.666Z,6.12
2023-03-29T09:48:47.923Z,5.50
2023-03-29T09:49:47.565Z,5.07
2023-03-29T09:50:47.580Z,5.02
2023-03-29T09:51:47.564Z,4.99
2023-03-29T09:52:47.554Z,5.01
2023-03-29T09:53:47.532Z,5.42
2023-03-29T09:54:47.537Z,5.49
2023-03-29T09:55:49.098Z,5.60
2023-03-29T09:56:47.547Z,5.55
2023-03-29T09:57:47.517Z,5.33
2023-03-29T09:58:47.503Z,5.25
2023-03-29T09:59:47.521Z,5.13
2023-03-29T10:00:47.511Z,4.96
2023-03-29T10:01:47.560Z,4.95
2023-03-29T10:02:47.530Z,5.02
2023-03-29T10:03:47.943Z,5.10
2023-03-29T10:04:47.921Z,5.27
2023-03-29T10:05:47.446Z,5.03
2023-03-29T10:06:47.448Z,5.25
2023-03-29T10:07:47.449Z,4.73
2023-03-29T10:08:47.437Z,4.64
2023-03-29T10:09:47.436Z,4.63
2023-03-29T10:10:47.420Z,4.35
2023-03-29T10:11:47.393Z,4.01
2023-03-29T10:12:47.399Z,3.82
2023-03-29T10:13:47.382Z,4.19
2023-03-29T10:14:47.375Z,3.90
2023-03-29T10:15:47.364Z,3.70
2023-03-29T10:16:47.405Z,4.03
2023-03-29T10:17:47.426Z,3.94
2023-03-29T10:18:47.358Z,3.90
2023-03-29T10:19:47.425Z,4.08
2023-03-29T10:20:47.328Z,4.43
2023-03-29T10:21:47.313Z,4.47
2023-03-29T10:22:47.317Z,4.04
2023-03-29T10:23:47.308Z,4.56
2023-03-29T10:24:47.444Z,5.10
2023-03-29T10:25:47.322Z,2.73
2023-03-29T10:26:47.296Z,1.03
2023-03-29T10:27:47.313Z,0.75
2023-03-29T10:28:47.293Z,0.51
2023-03-29T10:29:47.277Z,0.47
2023-03-29T10:30:47.270Z,0.40
2023-03-29T10:31:47.309Z,0.49
2023-03-29T10:32:47.340Z,0.50
2023-03-29T10:33:47.241Z,0.50
2023-03-29T10:34:47.235Z,0.47
2023-03-29T10:35:47.262Z,0.51
2023-03-29T10:36:47.219Z,0.60
2023-03-29T10:37:47.220Z,0.73
2023-03-29T10:38:47.216Z,0.82
2023-03-29T10:39:47.218Z,0.93
2023-03-29T10:40:47.557Z,1.04
2023-03-29T10:41:47.215Z,1.12
2023-03-29T10:42:47.206Z,1.25
2023-03-29T10:43:47.216Z,1.27
2023-03-29T10:44:47.180Z,1.23
2023-03-29T10:45:47.224Z,1.39
2023-03-29T10:46:47.250Z,1.44
2023-03-29T10:47:47.225Z,1.42
2023-03-29T10:48:47.156Z,1.49
2023-03-29T10:50:47.140Z,1.92
2023-03-29T10:51:47.120Z,2.16
2023-03-29T10:52:47.137Z,2.35
2023-03-29T10:53:47.106Z,2.31
2023-03-29T10:54:47.104Z,2.21
2023-03-29T10:55:47.095Z,1.81
2023-03-29T10:56:47.128Z,1.81
2023-03-29T10:57:47.111Z,1.83
2023-03-29T10:58:47.090Z,1.96
2023-03-29T10:59:47.457Z,2.05
2023-03-29T11:00:47.081Z,2.41
2023-03-29T11:01:47.137Z,2.69
2023-03-29T11:02:47.121Z,2.83
2023-03-29T11:03:47.224Z,3.11
2023-03-29T11:04:47.476Z,3.90
2023-03-29T11:05:47.036Z,4.62
2023-03-29T11:06:47.036Z,5.16
2023-03-29T11:07:47.012Z,6.24
2023-03-29T11:08:47.025Z,6.59
2023-03-29T11:09:47.063Z,7.39
2023-03-29T11:10:47.098Z,7.25
2023-03-29T11:11:47.164Z,7.21
2023-03-29T11:12:47.198Z,7.58
2023-03-29T11:13:47.235Z,9.02
2023-03-29T11:14:47.449Z,6.67
2023-03-29T11:15:47.488Z,3.72
2023-03-29T11:16:47.400Z,3.12
2023-03-29T11:17:47.532Z,3.30
2023-03-29T11:18:47.435Z,3.53
2023-03-29T11:19:47.475Z,2.63
2023-03-29T11:20:47.513Z,2.67
2023-03-29T11:21:47.549Z,2.79
2023-03-29T11:22:47.623Z,2.71
2023-03-29T11:23:47.690Z,2.18
2023-03-29T11:24:47.728Z,1.85
2023-03-29T11:25:47.745Z,1.40
2023-03-29T11:26:47.751Z,1.46
2023-03-29T11:27:47.767Z,1.12
2023-03-29T11:28:47.784Z,1.30
2023-03-29T11:29:47.783Z,1.57
2023-03-29T11:30:47.900Z,1.30
2023-03-29T11:31:47.903Z,1.34
2023-03-29T11:32:47.879Z,1.53
2023-03-29T11:33:47.831Z,1.53
2023-03-29T11:34:47.818Z,1.68
2023-03-29T11:35:47.865Z,1.82
2023-03-29T11:36:47.828Z,2.00
2023-03-29T11:37:47.830Z,2.15
2023-03-29T11:38:47.832Z,2.28
2023-03-29T11:39:47.849Z,2.48
2023-03-29T11:40:47.877Z,2.72
2023-03-29T11:41:47.888Z,2.66
2023-03-29T11:42:47.946Z,2.84
2023-03-29T11:43:48.031Z,2.95
2023-03-29T11:44:48.064Z,2.92
2023-03-29T11:45:48.167Z,2.68
2023-03-29T11:46:48.227Z,2.79
2023-03-29T11:47:48.250Z,2.47
2023-03-29T11:48:48.325Z,2.59
2023-03-29T11:49:48.353Z,2.92
2023-03-29T11:50:48.410Z,2.54
2023-03-29T11:51:48.485Z,2.35
2023-03-29T11:52:48.539Z,2.30
2023-03-29T11:53:48.598Z,2.32
2023-03-29T11:54:48.653Z,2.15
2023-03-29T11:55:48.985Z,2.12
2023-03-29T11:56:48.872Z,2.39
2023-03-29T11:57:48.978Z,2.39
2023-03-29T11:58:48.913Z,2.55
2023-03-29T11:59:48.906Z,2.72
2023-03-29T12:00:48.941Z,2.71
2023-03-29T12:01:49.029Z,2.95
2023-03-29T12:02:49.579Z,4.48
2023-03-29T12:03:49.161Z,5.31
2023-03-29T12:04:49.126Z,5.39
2023-03-29T12:05:49.167Z,6.32
2023-03-29T12:06:49.214Z,6.04
2023-03-29T12:07:49.224Z,6.88
2023-03-29T12:08:49.276Z,7.27
2023-03-29T12:09:49.320Z,8.95
2023-03-29T12:10:49.324Z,10.64
2023-03-29T12:11:49.352Z,11.84
2023-03-29T12:12:49.466Z,11.90
2023-03-29T12:13:49.405Z,12.35
2023-03-29T12:14:49.411Z,13.39
2023-03-29T12:15:49.443Z,14.41
2023-03-29T12:16:49.457Z,15.29
2023-03-29T12:17:49.499Z,15.95
2023-03-29T12:18:49.483Z,16.44
2023-03-29T12:19:49.437Z,16.69
2023-03-29T12:20:49.448Z,16.73
2023-03-29T12:21:49.446Z,15.52
2023-03-29T12:22:49.449Z,16.00
2023-03-29T12:23:49.457Z,14.40
2023-03-29T12:24:49.441Z,12.88
2023-03-29T12:25:49.450Z,6.94
2023-03-29T12:26:49.469Z,5.31
2023-03-29T12:27:49.508Z,3.79
2023-03-29T12:28:49.521Z,4.27
2023-03-29T12:29:49.541Z,3.49
2023-03-29T12:30:49.593Z,3.06
2023-03-29T12:31:49.699Z,2.30
2023-03-29T12:32:49.761Z,1.89
2023-03-29T12:33:49.734Z,1.69
2023-03-29T12:34:49.728Z,1.35
2023-03-29T12:35:49.763Z,1.05
2023-03-29T12:36:49.761Z,1.03
2023-03-29T12:37:49.815Z,0.96
2023-03-29T12:38:49.837Z,0.86
2023-03-29T12:39:49.879Z,0.75
2023-03-29T12:40:49.917Z,0.81
2023-03-29T12:41:49.956Z,0.87
2023-03-29T12:42:50.008Z,1.01
2023-03-29T12:43:50.156Z,1.07
2023-03-29T12:44:50.072Z,1.20
2023-03-29T12:45:50.123Z,1.26
2023-03-29T12:46:50.484Z,1.33
2023-03-29T12:47:50.315Z,1.44
2023-03-29T12:48:50.191Z,1.51
2023-03-29T12:49:50.203Z,1.70
2023-03-29T12:50:50.218Z,1.99
2023-03-29T12:51:50.234Z,2.10
2023-03-29T12:52:50.230Z,2.14
2023-03-29T12:53:50.248Z,2.13
2023-03-29T12:54:50.250Z,2.25
2023-03-29T12:55:50.251Z,2.16
2023-03-29T12:56:50.255Z,2.28
2023-03-29T12:57:50.232Z,2.14
2023-03-29T12:58:50.257Z,2.15
2023-03-29T12:59:50.252Z,2.27
2023-03-29T13:00:50.338Z,2.04
2023-03-29T13:01:50.335Z,2.06
2023-03-29T13:02:50.347Z,1.75
2023-03-29T13:03:50.248Z,1.13
2023-03-29T13:04:50.305Z,1.26
2023-03-29T13:05:50.387Z,1.16
2023-03-29T13:06:51.108Z,1.15
2023-03-29T13:07:50.336Z,1.55
2023-03-29T13:08:50.363Z,1.83
2023-03-29T13:09:50.391Z,1.73
2023-03-29T13:10:50.432Z,2.15
2023-03-29T13:11:50.424Z,1.82